Time;durP1;ratioP1;P1;durP2;ratioP2;P2;SDS_P1;SDS_P2;PMS_P1;PMS_P2;Temp;Humidity;BMP_temperature;BMP_pressure;BME280_temperature;BME280_humidity;BME280_pressure;Samples;Min_cycle;Max_cycle;Signal;HPM_P1;HPM_P2
2021/08/13 00:01:40;;;;;;;39.57;36.87;;;39.00;46.80;;;;;;5040161;28;20481;-37
2021/08/13 00:04:11;;;;;;;42.87;39.77;;;39.00;46.90;;;;;;5046697;28;20543;-38
2021/08/13 00:06:42;;;;;;;46.63;43.33;;;39.00;47.30;;;;;;5057527;28;20836;-39
2021/08/13 00:09:15;;;;;;;46.10;42.70;;;38.90;44.80;;;;;;5047884;28;20474;-38
2021/08/13 00:11:46;;;;;;;44.77;41.67;;;38.80;45.70;;;;;;5041569;28;20492;-39
2021/08/13 00:14:17;;;;;;;43.83;40.93;;;38.80;45.60;;;;;;5070567;27;20449;-38
2021/08/13 00:16:48;;;;;;;47.70;44.20;;;38.90;47.40;;;;;;5047198;28;20452;-38
2021/08/13 00:19:37;;;;;;;47.77;44.03;;;38.80;45.00;;;;;;5060478;28;20480;-38
2021/08/13 00:22:08;;;;;;;48.73;45.30;;;38.90;45.60;;;;;;5040856;28;20485;-37
2021/08/13 00:24:41;;;;;;;51.30;47.57;;;38.70;46.10;;;;;;5040059;28;20456;-37
2021/08/13 00:27:12;;;;;;;55.10;51.13;;;38.70;45.90;;;;;;5041743;28;20449;-39
2021/08/13 00:29:43;;;;;;;55.03;51.13;;;38.60;44.60;;;;;;5042116;28;20533;-38
2021/08/13 00:32:14;;;;;;;56.00;52.00;;;38.50;44.70;;;;;;5038005;28;20445;-41
2021/08/13 00:34:46;;;;;;;57.20;53.20;;;38.50;45.40;;;;;;5039131;28;20437;-40
2021/08/13 00:37:17;;;;;;;56.80;52.53;;;38.40;45.80;;;;;;5040520;28;20456;-40
2021/08/13 00:39:50;;;;;;;58.07;53.87;;;38.30;45.80;;;;;;5042865;28;20461;-38
2021/08/13 00:42:21;;;;;;;64.10;59.30;;;38.30;45.20;;;;;;5038278;28;20495;-36
2021/08/13 00:44:52;;;;;;;68.23;63.33;;;38.40;45.60;;;;;;5039688;28;20502;-37
2021/08/13 00:47:23;;;;;;;68.50;63.60;;;38.30;45.50;;;;;;5040260;28;20460;-37
2021/08/13 00:49:55;;;;;;;71.63;66.43;;;38.10;46.20;;;;;;5044728;28;20925;-36
2021/08/13 00:52:26;;;;;;;73.43;67.87;;;38.00;45.80;;;;;;5037519;28;20790;-37
2021/08/13 00:54:59;;;;;;;80.23;74.50;;;37.90;46.50;;;;;;5047145;28;20515;-38
2021/08/13 00:57:30;;;;;;;81.57;75.70;;;37.90;46.30;;;;;;5050211;28;20522;-37
2021/08/13 01:00:01;;;;;;;80.37;74.67;;;37.80;46.80;;;;;;5044088;28;20541;-37
2021/08/13 01:02:32;;;;;;;78.10;72.67;;;37.60;46.90;;;;;;5040077;28;20485;-37
2021/08/13 01:05:04;;;;;;;81.00;75.17;;;37.40;48.00;;;;;;5045959;28;20455;-38
2021/08/13 01:07:35;;;;;;;75.83;70.27;;;37.40;45.80;;;;;;5052447;28;20452;-37
2021/08/13 01:10:09;;;;;;;74.70;69.57;;;37.20;45.80;;;;;;5047431;28;20559;-37
2021/08/13 01:12:49;;;;;;;72.63;67.33;;;37.10;46.80;;;;;;5043859;28;20910;-38
2021/08/13 01:15:22;;;;;;;73.60;68.30;;;36.90;46.40;;;;;;5042982;28;20528;-39
2021/08/13 01:17:59;;;;;;;78.33;72.60;;;37.00;47.20;;;;;;5042638;28;20475;-37
2021/08/13 01:20:48;;;;;;;73.60;68.27;;;37.00;46.30;;;;;;5046754;28;20448;-38
2021/08/13 01:23:23;;;;;;;79.93;74.07;;;37.00;46.30;;;;;;5041522;28;20474;-38
2021/08/13 01:26:00;;;;;;;73.93;68.37;;;36.90;45.60;;;;;;5042557;28;20464;-39
2021/08/13 01:28:36;;;;;;;71.00;65.67;;;36.90;46.80;;;;;;5042978;28;20468;-38
2021/08/13 01:31:16;;;;;;;68.23;63.13;;;36.90;48.00;;;;;;5051209;28;20462;-38
2021/08/13 01:33:52;;;;;;;66.43;61.60;;;36.80;49.00;;;;;;5047219;28;20487;-38
2021/08/13 01:36:24;;;;;;;60.53;56.07;;;36.70;49.90;;;;;;5041491;28;21781;-38
2021/08/13 01:38:56;;;;;;;56.80;52.50;;;36.60;50.40;;;;;;5049963;28;20486;-38
2021/08/13 01:41:28;;;;;;;55.70;51.47;;;36.50;51.60;;;;;;5037884;28;20447;-39
2021/08/13 01:44:00;;;;;;;52.40;48.53;;;36.40;51.60;;;;;;5062227;28;20566;-38
2021/08/13 01:46:32;;;;;;;50.60;46.87;;;36.40;52.30;;;;;;5051192;28;20460;-37
2021/08/13 01:49:06;;;;;;;50.70;46.80;;;36.30;52.30;;;;;;5043172;28;20463;-40
2021/08/13 01:51:37;;;;;;;50.20;46.50;;;36.20;51.90;;;;;;5041536;28;20489;-38
2021/08/13 01:54:09;;;;;;;47.30;43.80;;;36.10;52.20;;;;;;5042696;28;20453;-37
2021/08/13 01:56:40;;;;;;;48.80;44.40;;;36.10;52.30;;;;;;5059529;28;20450;-36
2021/08/13 01:59:11;;;;;;;48.77;45.17;;;36.00;52.70;;;;;;5062122;28;20474;-37
2021/08/13 02:01:43;;;;;;;44.57;41.17;;;35.90;53.30;;;;;;5049871;28;20596;-39
2021/08/13 02:04:19;;;;;;;46.50;42.87;;;35.90;53.60;;;;;;5038142;28;20497;-37
2021/08/13 02:06:50;;;;;;;43.87;40.47;;;35.80;53.50;;;;;;5035067;28;20452;-38
2021/08/13 02:09:23;;;;;;;44.20;40.47;;;35.60;55.00;;;;;;5061128;28;20441;-37
2021/08/13 02:11:54;;;;;;;41.60;38.50;;;35.60;54.40;;;;;;5045751;28;20508;-38
2021/08/13 02:14:26;;;;;;;41.63;38.27;;;35.50;54.20;;;;;;5042838;28;20464;-38
2021/08/13 02:16:58;;;;;;;38.83;35.93;;;35.40;54.30;;;;;;5056679;28;20506;-37
2021/08/13 02:19:37;;;;;;;37.10;34.30;;;35.30;55.20;;;;;;5041614;28;20471;-37
2021/08/13 02:22:08;;;;;;;36.90;34.17;;;35.20;55.30;;;;;;5039913;28;20484;-37
2021/08/13 02:24:39;;;;;;;37.57;34.67;;;35.00;55.80;;;;;;5045649;28;20555;-38
2021/08/13 02:27:10;;;;;;;36.40;33.70;;;35.00;56.50;;;;;;5061455;28;20468;-37
2021/08/13 02:29:41;;;;;;;35.07;32.23;;;34.90;56.70;;;;;;5052018;27;20803;-38
2021/08/13 02:32:13;;;;;;;33.53;30.83;;;34.80;57.00;;;;;;5035807;28;20445;-38
2021/08/13 02:34:47;;;;;;;32.80;30.13;;;34.60;57.30;;;;;;5042765;28;20444;-37
2021/08/13 02:37:22;;;;;;;29.43;27.23;;;34.40;58.40;;;;;;5048229;28;20461;-38
2021/08/13 02:39:56;;;;;;;30.40;27.90;;;34.10;59.10;;;;;;5052863;28;20444;-39
2021/08/13 02:42:34;;;;;;;29.20;27.10;;;34.10;58.90;;;;;;5043967;27;20591;-42
2021/08/13 02:45:06;;;;;;;28.37;26.17;;;34.00;59.30;;;;;;5049811;27;20478;-38
2021/08/13 02:47:38;;;;;;;28.23;25.93;;;33.70;60.00;;;;;;5039192;28;20449;-38
2021/08/13 02:50:12;;;;;;;27.73;25.63;;;33.70;60.70;;;;;;5042245;28;20494;-38
2021/08/13 02:52:48;;;;;;;27.97;25.93;;;33.50;61.20;;;;;;5040453;28;20517;-40
2021/08/13 02:55:23;;;;;;;27.83;25.63;;;33.40;60.60;;;;;;5038927;28;20452;-40
2021/08/13 02:57:57;;;;;;;26.97;24.63;;;33.30;61.00;;;;;;5037713;28;20440;-39
2021/08/13 03:00:29;;;;;;;25.53;23.60;;;33.20;60.90;;;;;;5040688;28;20456;-38
2021/08/13 03:03:01;;;;;;;29.50;27.20;;;33.10;61.40;;;;;;5031469;28;20474;-38
2021/08/13 03:05:35;;;;;;;30.77;28.47;;;33.10;61.00;;;;;;5038128;28;20452;-39
2021/08/13 03:08:06;;;;;;;29.03;26.87;;;33.20;61.30;;;;;;5039200;28;20478;-38
2021/08/13 03:10:39;;;;;;;32.43;29.80;;;33.20;61.10;;;;;;5047286;28;20470;-38
2021/08/13 03:13:10;;;;;;;31.13;28.63;;;33.20;61.50;;;;;;5060962;28;20523;-38
2021/08/13 03:15:42;;;;;;;31.20;28.83;;;33.10;62.80;;;;;;5059389;28;20466;-39
2021/08/13 03:18:14;;;;;;;31.70;29.10;;;33.00;63.50;;;;;;5058914;28;20482;-38
2021/08/13 03:20:49;;;;;;;32.87;29.60;;;32.90;65.40;;;;;;5058631;28;20454;-38
2021/08/13 03:23:20;;;;;;;32.60;29.90;;;32.70;64.90;;;;;;5060086;28;20482;-39
2021/08/13 03:25:52;;;;;;;31.73;29.40;;;32.60;65.20;;;;;;5050494;28;20494;-38
2021/08/13 03:28:23;;;;;;;31.30;28.87;;;32.50;66.10;;;;;;5040625;28;20483;-37
2021/08/13 03:30:54;;;;;;;32.40;29.90;;;32.40;66.30;;;;;;5042813;28;20467;-37
2021/08/13 03:33:25;;;;;;;33.57;30.73;;;32.30;66.70;;;;;;5040698;28;20507;-37
2021/08/13 03:35:59;;;;;;;31.43;28.83;;;32.20;67.50;;;;;;5040737;28;20459;-39
2021/08/13 03:38:30;;;;;;;28.80;26.60;;;32.20;67.30;;;;;;5043769;28;20555;-38
2021/08/13 03:41:01;;;;;;;28.03;25.90;;;32.40;66.00;;;;;;5042209;28;20453;-37
2021/08/13 03:43:32;;;;;;;22.83;21.13;;;32.40;65.80;;;;;;5058942;28;20476;-37
2021/08/13 03:46:03;;;;;;;24.83;22.93;;;32.60;65.30;;;;;;5060339;28;20439;-39
2021/08/13 03:48:34;;;;;;;22.43;20.67;;;32.60;64.70;;;;;;5056264;28;20460;-37
2021/08/13 03:51:07;;;;;;;23.27;21.50;;;32.60;64.60;;;;;;5041237;28;20494;-39
2021/08/13 03:53:38;;;;;;;21.63;19.97;;;32.50;64.90;;;;;;5043231;28;20479;-37
2021/08/13 03:56:09;;;;;;;21.00;19.47;;;32.40;65.10;;;;;;5040476;28;20452;-38
2021/08/13 03:58:41;;;;;;;21.00;19.40;;;32.30;65.40;;;;;;5039952;28;20496;-37
2021/08/13 04:01:12;;;;;;;21.17;19.50;;;32.30;65.70;;;;;;5078654;27;20479;-36
2021/08/13 04:03:44;;;;;;;20.10;18.20;;;32.10;65.90;;;;;;5063318;27;20494;-38
2021/08/13 04:06:19;;;;;;;20.20;18.53;;;32.00;66.30;;;;;;5039777;28;20464;-37
2021/08/13 04:08:51;;;;;;;18.03;16.57;;;31.90;66.70;;;;;;5049589;28;20458;-38
2021/08/13 04:11:22;;;;;;;18.57;16.83;;;31.90;67.30;;;;;;5059922;28;20483;-38
2021/08/13 04:13:53;;;;;;;18.03;16.60;;;31.90;67.10;;;;;;5054299;28;20523;-38
2021/08/13 04:16:24;;;;;;;16.53;15.33;;;31.90;67.20;;;;;;5040007;28;20444;-39
2021/08/13 04:18:56;;;;;;;17.43;16.13;;;31.90;67.90;;;;;;5049444;28;20560;-38
2021/08/13 04:21:29;;;;;;;16.57;15.27;;;31.80;68.30;;;;;;5051735;27;20478;-37
2021/08/13 04:24:01;;;;;;;16.73;15.53;;;31.60;68.80;;;;;;5046033;27;20486;-36
2021/08/13 04:26:32;;;;;;;17.40;16.00;;;31.50;69.60;;;;;;5060500;28;20522;-37
2021/08/13 04:29:03;;;;;;;16.27;14.90;;;31.50;69.70;;;;;;5098595;27;20451;-37
2021/08/13 04:31:34;;;;;;;16.47;15.07;;;31.40;70.10;;;;;;5054222;28;20504;-36
2021/08/13 04:34:05;;;;;;;15.87;14.53;;;31.40;70.50;;;;;;5049558;28;20543;-37
2021/08/13 04:36:38;;;;;;;16.00;14.80;;;31.30;70.40;;;;;;5026430;28;20486;-37
2021/08/13 04:39:10;;;;;;;16.37;15.10;;;31.30;70.90;;;;;;5037716;28;20452;-37
2021/08/13 04:41:41;;;;;;;16.23;14.60;;;31.20;71.30;;;;;;5037507;28;20471;-37
2021/08/13 04:44:12;;;;;;;16.53;15.20;;;31.10;72.80;;;;;;5027429;28;20487;-37
2021/08/13 04:46:43;;;;;;;15.57;14.37;;;31.00;73.00;;;;;;5037267;28;20487;-38
2021/08/13 04:49:15;;;;;;;14.50;13.30;;;30.90;73.20;;;;;;5034439;28;20448;-37
2021/08/13 04:51:48;;;;;;;16.87;15.57;;;30.80;74.70;;;;;;5037015;28;20480;-37
2021/08/13 04:54:19;;;;;;;14.50;13.20;;;30.60;75.00;;;;;;5043984;28;20801;-37
2021/08/13 04:56:50;;;;;;;16.53;15.17;;;30.50;75.20;;;;;;5059144;28;20455;-37
2021/08/13 04:59:21;;;;;;;16.03;14.53;;;30.50;75.70;;;;;;5025888;28;20521;-37
2021/08/13 05:01:56;;;;;;;14.80;13.50;;;30.50;76.10;;;;;;5055483;28;20462;-36
2021/08/13 05:04:27;;;;;;;16.10;14.73;;;30.40;76.10;;;;;;5041006;28;20499;-37
2021/08/13 05:07:00;;;;;;;15.47;14.27;;;30.30;77.10;;;;;;5027649;28;20460;-36
2021/08/13 05:09:35;;;;;;;14.60;13.37;;;30.10;78.40;;;;;;5038915;28;20489;-36
2021/08/13 05:12:08;;;;;;;15.37;14.13;;;29.90;79.50;;;;;;5040326;28;20443;-36
2021/08/13 05:14:40;;;;;;;14.83;13.63;;;29.70;80.90;;;;;;5041327;28;20460;-37
2021/08/13 05:17:12;;;;;;;14.63;13.43;;;29.60;80.90;;;;;;5045228;28;20496;-37
2021/08/13 05:19:44;;;;;;;14.67;13.50;;;29.50;81.40;;;;;;5047697;28;20497;-37
2021/08/13 05:22:17;;;;;;;14.80;13.70;;;29.50;82.50;;;;;;5040131;28;20450;-37
2021/08/13 05:24:48;;;;;;;15.40;14.00;;;29.40;82.10;;;;;;5040357;28;20569;-37
2021/08/13 05:27:20;;;;;;;15.50;14.30;;;29.50;82.10;;;;;;5039307;28;20463;-36
2021/08/13 05:29:51;;;;;;;15.73;14.27;;;29.40;82.60;;;;;;5039690;28;20447;-36
2021/08/13 05:32:23;;;;;;;15.87;14.57;;;29.30;82.30;;;;;;5038798;28;20474;-36
2021/08/13 05:34:54;;;;;;;15.03;13.60;;;29.30;83.40;;;;;;5044474;28;20462;-37
2021/08/13 05:37:27;;;;;;;14.20;13.00;;;29.30;84.20;;;;;;5039571;28;20542;-37
2021/08/13 05:39:59;;;;;;;15.47;14.00;;;29.20;84.20;;;;;;5038877;28;20453;-38
2021/08/13 05:42:30;;;;;;;14.83;13.53;;;29.20;84.40;;;;;;5037702;28;20457;-37
2021/08/13 05:45:03;;;;;;;14.00;12.80;;;29.10;84.50;;;;;;5054411;28;20500;-38
2021/08/13 05:47:38;;;;;;;14.03;12.80;;;28.90;86.30;;;;;;5035521;28;20487;-39
2021/08/13 05:50:10;;;;;;;14.23;13.03;;;28.80;87.80;;;;;;5035763;28;20774;-37
2021/08/13 05:52:43;;;;;;;13.87;12.87;;;28.70;89.90;;;;;;5039822;28;20449;-37
2021/08/13 05:55:15;;;;;;;15.43;14.07;;;28.60;90.40;;;;;;5061523;28;20474;-38
2021/08/13 05:57:46;;;;;;;14.73;13.30;;;28.50;90.50;;;;;;5043592;28;20630;-39
2021/08/13 06:00:18;;;;;;;14.20;12.93;;;28.50;90.60;;;;;;5042881;28;20460;-38
2021/08/13 06:02:58;;;;;;;15.27;13.90;;;28.40;91.00;;;;;;5041874;28;20460;-38
2021/08/13 06:05:29;;;;;;;15.03;13.77;;;28.30;91.80;;;;;;5026827;28;20489;-38
2021/08/13 06:08:02;;;;;;;14.20;13.10;;;28.20;92.50;;;;;;5041545;28;20518;-38
2021/08/13 06:10:33;;;;;;;13.20;12.20;;;28.10;93.30;;;;;;5030540;28;20487;-37
2021/08/13 06:13:05;;;;;;;14.67;13.40;;;28.00;93.50;;;;;;5041823;28;20954;-38
2021/08/13 06:15:36;;;;;;;14.27;13.07;;;28.00;93.00;;;;;;5047836;28;20449;-38
2021/08/13 06:18:08;;;;;;;14.30;13.13;;;28.10;93.70;;;;;;5042140;28;20496;-36
2021/08/13 06:20:39;;;;;;;15.07;13.77;;;28.10;93.80;;;;;;5041322;28;20487;-37
2021/08/13 06:23:12;;;;;;;14.60;13.30;;;28.10;94.10;;;;;;5041274;28;20516;-37
2021/08/13 06:25:43;;;;;;;14.13;12.93;;;28.00;94.20;;;;;;5053787;28;20485;-38
2021/08/13 06:28:14;;;;;;;14.00;12.70;;;28.00;94.80;;;;;;5037882;28;20509;-37
2021/08/13 06:30:45;;;;;;;14.00;12.90;;;27.90;95.90;;;;;;5040912;28;20456;-37
2021/08/13 06:33:16;;;;;;;14.10;12.97;;;27.80;96.60;;;;;;5041235;28;20463;-38
2021/08/13 06:35:47;;;;;;;15.10;13.77;;;27.70;96.70;;;;;;5041398;28;20482;-38
2021/08/13 06:38:20;;;;;;;14.70;13.50;;;27.60;97.60;;;;;;5046164;28;20521;-37
2021/08/13 06:40:51;;;;;;;14.30;12.97;;;27.60;98.30;;;;;;5038131;28;20468;-36
2021/08/13 06:43:22;;;;;;;15.30;13.97;;;27.50;98.30;;;;;;5032156;28;20503;-38
2021/08/13 06:45:53;;;;;;;14.43;13.10;;;27.40;99.00;;;;;;5042961;28;20480;-38
2021/08/13 06:48:24;;;;;;;14.57;13.13;;;27.30;99.30;;;;;;5041640;28;20467;-38
2021/08/13 06:50:55;;;;;;;15.27;13.90;;;27.30;99.90;;;;;;5060239;28;20487;-36
2021/08/13 06:53:28;;;;;;;13.67;12.47;;;27.10;99.90;;;;;;5041030;28;20933;-37
2021/08/13 06:55:59;;;;;;;14.93;13.83;;;27.10;99.90;;;;;;5041503;28;20455;-37
2021/08/13 06:58:30;;;;;;;15.07;13.70;;;27.00;99.90;;;;;;5048953;28;20455;-39
2021/08/13 07:01:02;;;;;;;15.00;13.73;;;27.00;99.90;;;;;;5046613;28;20455;-38
2021/08/13 07:03:33;;;;;;;15.13;13.83;;;27.00;99.90;;;;;;5041464;28;20544;-37
2021/08/13 07:06:04;;;;;;;14.70;13.40;;;27.10;99.90;;;;;;5053815;28;20484;-37
2021/08/13 07:08:37;;;;;;;13.90;12.70;;;27.00;99.90;;;;;;5034698;28;20548;-37
2021/08/13 07:11:08;;;;;;;14.03;12.83;;;27.00;99.90;;;;;;5041123;28;20503;-38
2021/08/13 07:13:39;;;;;;;13.10;11.93;;;27.00;99.90;;;;;;5041449;28;20480;-37
2021/08/13 07:16:10;;;;;;;13.47;12.27;;;27.00;99.90;;;;;;5041673;28;20464;-37
2021/08/13 07:18:41;;;;;;;12.77;11.73;;;27.00;99.90;;;;;;5031895;28;20479;-38
2021/08/13 07:21:12;;;;;;;13.20;11.93;;;27.00;99.90;;;;;;5040175;28;20463;-36
2021/08/13 07:23:44;;;;;;;12.83;11.83;;;26.90;99.90;;;;;;5041007;28;20522;-37
2021/08/13 07:26:15;;;;;;;13.40;12.20;;;26.80;99.90;;;;;;5051482;28;20491;-37
2021/08/13 07:28:46;;;;;;;12.60;11.40;;;26.70;99.90;;;;;;5055624;28;20522;-36
2021/08/13 07:31:17;;;;;;;14.47;11.50;;;26.70;99.90;;;;;;5040548;28;20458;-37
2021/08/13 07:33:48;;;;;;;13.30;12.10;;;26.60;99.90;;;;;;5044378;28;20462;-38
2021/08/13 07:36:24;;;;;;;11.67;10.67;;;26.60;99.90;;;;;;5039839;28;20474;-37
2021/08/13 07:38:57;;;;;;;13.63;11.17;;;26.50;99.90;;;;;;5032302;28;20457;-37
2021/08/13 07:41:28;;;;;;;14.70;11.40;;;26.50;99.90;;;;;;5040395;28;20825;-37
2021/08/13 07:43:59;;;;;;;12.60;11.37;;;26.40;99.90;;;;;;5041139;28;20441;-36
2021/08/13 07:46:30;;;;;;;11.53;10.43;;;26.30;99.90;;;;;;5040551;28;20516;-37
2021/08/13 07:49:01;;;;;;;12.37;11.27;;;26.30;99.90;;;;;;5048110;28;20457;-37
2021/08/13 07:51:32;;;;;;;11.67;10.67;;;26.20;99.90;;;;;;5048951;28;20453;-37
2021/08/13 07:54:05;;;;;;;11.60;10.53;;;26.20;99.90;;;;;;5022038;28;20498;-38
2021/08/13 07:56:36;;;;;;;11.90;10.90;;;26.20;99.90;;;;;;5057418;28;20484;-39
2021/08/13 07:59:07;;;;;;;12.53;11.23;;;26.20;99.90;;;;;;5041359;28;20598;-38
2021/08/13 08:01:38;;;;;;;11.50;10.30;;;26.20;99.90;;;;;;5040561;28;20449;-36
2021/08/13 08:04:09;;;;;;;12.80;11.53;;;26.30;99.90;;;;;;5039680;28;20466;-38
2021/08/13 08:06:42;;;;;;;11.70;10.60;;;26.40;99.90;;;;;;5039259;28;20489;-37
2021/08/13 08:09:14;;;;;;;10.60;9.60;;;26.20;99.90;;;;;;5040772;28;20450;-37
2021/08/13 08:11:45;;;;;;;11.67;10.67;;;26.20;99.90;;;;;;5040286;28;20446;-38
2021/08/13 08:14:16;;;;;;;10.40;9.40;;;26.10;99.90;;;;;;5042183;28;20455;-37
2021/08/13 08:16:47;;;;;;;11.17;10.27;;;26.00;99.90;;;;;;5045735;28;21027;-37
2021/08/13 08:19:18;;;;;;;12.03;10.77;;;26.00;99.90;;;;;;5048742;28;20606;-37
2021/08/13 08:21:50;;;;;;;11.67;10.67;;;25.90;99.90;;;;;;5046316;28;20453;-37
2021/08/13 08:24:23;;;;;;;10.53;9.50;;;25.80;99.90;;;;;;5055015;28;20501;-37
2021/08/13 08:26:54;;;;;;;11.10;9.93;;;25.80;99.90;;;;;;5059596;28;20508;-37
2021/08/13 08:29:25;;;;;;;11.07;10.07;;;25.70;99.90;;;;;;5051185;28;20484;-36
2021/08/13 08:31:55;;;;;;;11.50;9.90;;;25.60;99.90;;;;;;5035044;28;20481;-36
2021/08/13 08:34:26;;;;;;;10.40;9.47;;;25.50;99.90;;;;;;5041168;28;20573;-36
2021/08/13 08:36:57;;;;;;;11.00;10.00;;;25.50;99.90;;;;;;5024647;28;20674;-37
2021/08/13 08:39:30;;;;;;;12.53;10.77;;;25.40;99.90;;;;;;5044073;28;20462;-36
2021/08/13 08:42:01;;;;;;;11.60;9.80;;;25.40;99.90;;;;;;5038957;28;20472;-37
2021/08/13 08:44:32;;;;;;;11.77;10.57;;;25.30;99.90;;;;;;5040831;28;20453;-36
2021/08/13 08:47:03;;;;;;;11.40;10.40;;;25.30;99.90;;;;;;5039896;28;20516;-37
2021/08/13 08:49:35;;;;;;;10.87;9.77;;;25.20;99.90;;;;;;5044730;28;20492;-38
2021/08/13 08:52:07;;;;;;;10.90;9.90;;;25.20;99.90;;;;;;5051711;28;20567;-37
2021/08/13 08:54:42;;;;;;;11.93;9.97;;;25.10;99.90;;;;;;5059507;28;20480;-37
2021/08/13 08:57:13;;;;;;;10.97;9.97;;;25.00;99.90;;;;;;5059370;28;20440;-36
2021/08/13 08:59:44;;;;;;;9.97;9.07;;;25.00;99.90;;;;;;5050184;28;20474;-37
2021/08/13 09:02:16;;;;;;;10.80;9.70;;;25.10;99.90;;;;;;5053641;28;20459;-37
2021/08/13 09:04:47;;;;;;;11.30;10.20;;;25.10;99.90;;;;;;5041017;28;20512;-37
2021/08/13 09:07:18;;;;;;;11.03;10.00;;;25.10;99.90;;;;;;5038691;28;20514;-36
2021/08/13 09:09:50;;;;;;;11.30;10.17;;;25.00;99.90;;;;;;5045594;28;20461;-37
2021/08/13 09:12:25;;;;;;;10.93;9.00;;;24.90;99.90;;;;;;5034779;28;20995;-37
2021/08/13 09:14:56;;;;;;;10.33;9.33;;;24.80;99.90;;;;;;5050433;28;20470;-37
2021/08/13 09:17:30;;;;;;;11.93;10.20;;;24.80;99.90;;;;;;5059024;28;20449;-37
2021/08/13 09:20:02;;;;;;;10.73;9.70;;;24.70;99.90;;;;;;5040527;28;20572;-37
2021/08/13 09:22:43;;;;;;;11.00;9.90;;;24.70;99.90;;;;;;5033421;28;20892;-37
2021/08/13 09:25:15;;;;;;;11.27;9.80;;;24.70;99.90;;;;;;5039750;28;20498;-35
2021/08/13 09:27:48;;;;;;;13.30;10.23;;;24.60;99.90;;;;;;5062862;28;20488;-36
2021/08/13 09:30:39;;;;;;;11.60;10.50;;;24.50;99.90;;;;;;5051102;28;20544;-36
2021/08/13 09:33:10;;;;;;;11.20;9.77;;;24.50;99.90;;;;;;5042498;28;20446;-36
2021/08/13 09:35:42;;;;;;;11.07;9.97;;;24.40;99.90;;;;;;5044584;28;20524;-36
2021/08/13 09:38:14;;;;;;;10.87;9.87;;;24.40;99.90;;;;;;5045741;28;20563;-35
2021/08/13 09:40:47;;;;;;;9.70;8.90;;;24.30;99.90;;;;;;5045111;28;20608;-36
2021/08/13 09:43:18;;;;;;;13.63;9.53;;;24.20;99.90;;;;;;5056583;28;20795;-36
2021/08/13 09:46:07;;;;;;;10.50;9.50;;;24.10;99.90;;;;;;5046913;28;21139;-36
2021/08/13 09:48:38;;;;;;;10.87;9.20;;;24.10;99.90;;;;;;5034476;28;20529;-36
2021/08/13 09:51:32;;;;;;;10.47;9.47;;;24.00;99.90;;;;;;5046508;28;20481;-36
2021/08/13 09:54:05;;;;;;;10.10;9.27;;;24.00;99.90;;;;;;5042305;28;20550;-37
2021/08/13 09:56:39;;;;;;;11.03;10.00;;;24.00;99.90;;;;;;5043220;28;20493;-36
2021/08/13 09:59:17;;;;;;;11.20;10.30;;;23.90;99.90;;;;;;5051160;28;20754;-36
2021/08/13 10:01:49;;;;;;;13.53;10.27;;;23.80;99.90;;;;;;5043121;28;20926;-37
2021/08/13 10:04:32;;;;;;;10.80;9.70;;;23.70;99.90;;;;;;5050836;28;20473;-36
2021/08/13 10:07:04;;;;;;;13.77;10.57;;;23.70;99.90;;;;;;5061085;28;20543;-37
2021/08/13 10:09:35;;;;;;;9.90;8.90;;;23.70;99.90;;;;;;5049987;28;20457;-38
2021/08/13 10:12:09;;;;;;;9.67;8.80;;;23.70;99.90;;;;;;5041677;28;20802;-36
2021/08/13 10:14:41;;;;;;;9.70;8.80;;;23.70;99.90;;;;;;5041854;28;20442;-37
2021/08/13 10:17:14;;;;;;;14.73;10.47;;;23.60;99.90;;;;;;5049637;28;20455;-37
2021/08/13 10:19:46;;;;;;;11.73;9.70;;;23.50;99.90;;;;;;5048422;28;20485;-37
2021/08/13 10:22:19;;;;;;;10.17;9.27;;;23.50;99.90;;;;;;5041056;28;20496;-37
2021/08/13 10:24:51;;;;;;;11.20;10.20;;;23.50;99.90;;;;;;5044984;28;20465;-37
2021/08/13 10:27:24;;;;;;;13.03;10.53;;;23.50;99.90;;;;;;5041220;28;20480;-36
2021/08/13 10:29:55;;;;;;;11.60;10.40;;;23.50;99.90;;;;;;5050326;28;20495;-36
2021/08/13 10:32:26;;;;;;;14.23;10.07;;;23.40;99.90;;;;;;5059463;28;20440;-36
2021/08/13 10:34:57;;;;;;;11.97;9.77;;;23.40;99.90;;;;;;5055961;27;20465;-37
2021/08/13 10:37:30;;;;;;;11.13;9.63;;;23.40;99.90;;;;;;5049512;28;20473;-37
2021/08/13 10:40:01;;;;;;;11.23;10.13;;;23.30;99.90;;;;;;5055314;28;20449;-38
2021/08/13 10:42:36;;;;;;;11.40;10.27;;;23.30;99.90;;;;;;5042140;28;20464;-37
2021/08/13 10:45:11;;;;;;;13.17;9.73;;;23.40;99.90;;;;;;5043200;28;20452;-36
2021/08/13 10:47:51;;;;;;;10.37;9.20;;;23.30;99.90;;;;;;5058681;28;20500;-36
2021/08/13 10:50:23;;;;;;;11.30;9.40;;;23.20;99.90;;;;;;5052465;28;20476;-36
2021/08/13 10:52:54;;;;;;;14.97;10.67;;;23.30;99.90;;;;;;5038935;28;20501;-36
2021/08/13 10:55:47;;;;;;;12.13;9.60;;;23.30;99.90;;;;;;5053435;28;20472;-37
2021/08/13 10:58:43;;;;;;;11.13;9.20;;;23.20;99.90;;;;;;5040952;28;20519;-36
2021/08/13 11:01:15;;;;;;;12.43;10.23;;;23.10;99.90;;;;;;5037089;28;20463;-37
2021/08/13 11:04:10;;;;;;;11.00;9.83;;;23.10;99.90;;;;;;5046731;28;20532;-36
2021/08/13 11:06:45;;;;;;;12.80;10.20;;;23.00;99.90;;;;;;5037362;28;20488;-36
2021/08/13 11:09:31;;;;;;;12.03;10.83;;;23.00;99.90;;;;;;5027343;28;20452;-37
2021/08/13 11:12:10;;;;;;;10.97;9.87;;;23.00;99.90;;;;;;5040467;28;20441;-37
2021/08/13 11:14:53;;;;;;;11.20;10.20;;;22.90;99.90;;;;;;5054459;28;20510;-37
2021/08/13 11:17:36;;;;;;;11.83;10.63;;;22.90;99.90;;;;;;5026591;28;20525;-36
2021/08/13 11:20:09;;;;;;;12.07;10.87;;;22.80;99.90;;;;;;5042501;28;20439;-36
2021/08/13 11:22:41;;;;;;;10.97;9.87;;;22.80;99.90;;;;;;5039518;28;20483;-37
2021/08/13 11:25:13;;;;;;;12.50;10.73;;;22.70;99.90;;;;;;5025074;28;20449;-37
2021/08/13 11:28:18;;;;;;;12.33;11.03;;;22.70;99.90;;;;;;5040548;28;20493;-38
2021/08/13 11:30:51;;;;;;;11.83;10.40;;;22.70;99.90;;;;;;5039836;28;20457;-36
2021/08/13 11:33:42;;;;;;;13.97;12.00;;;22.60;99.90;;;;;;5031959;28;20441;-36
2021/08/13 11:36:50;;;;;;;12.00;10.30;;;22.60;99.90;;;;;;5052231;28;20454;-37
2021/08/13 11:39:38;;;;;;;13.97;12.00;;;22.50;99.90;;;;;;5025523;28;20441;-36
2021/08/13 11:42:11;;;;;;;12.20;10.70;;;22.50;99.90;;;;;;5040079;28;20420;-36
2021/08/13 11:44:42;;;;;;;11.40;10.30;;;22.40;99.90;;;;;;5054308;28;20464;-37
2021/08/13 11:47:18;;;;;;;10.97;9.80;;;22.40;99.90;;;;;;5042829;28;20460;-36
2021/08/13 11:49:49;;;;;;;11.30;10.03;;;22.40;99.90;;;;;;5040816;28;20525;-36
2021/08/13 11:52:20;;;;;;;11.77;10.27;;;22.40;99.90;;;;;;5048869;28;20431;-37
2021/08/13 11:54:52;;;;;;;11.77;10.60;;;22.40;99.90;;;;;;5040381;28;20453;-36
2021/08/13 11:57:24;;;;;;;14.30;10.70;;;22.40;99.90;;;;;;5046216;28;20510;-36
2021/08/13 11:59:55;;;;;;;11.37;10.17;;;22.40;99.90;;;;;;5058385;28;20451;-36
2021/08/13 12:02:31;;;;;;;10.83;9.93;;;22.40;99.90;;;;;;5040437;28;20446;-36
2021/08/13 12:05:07;;;;;;;10.97;9.83;;;22.40;99.90;;;;;;5044781;28;20449;-36
2021/08/13 12:07:39;;;;;;;13.77;10.90;;;22.30;99.90;;;;;;5036085;28;20473;-37
2021/08/13 12:10:14;;;;;;;11.63;10.43;;;22.30;99.90;;;;;;5040518;28;20503;-36
2021/08/13 12:12:46;;;;;;;10.87;9.93;;;22.30;99.90;;;;;;5045921;28;20489;-36
2021/08/13 12:15:29;;;;;;;10.53;9.03;;;22.20;99.90;;;;;;5054538;28;20453;-36
2021/08/13 12:18:03;;;;;;;11.83;10.63;;;22.20;99.90;;;;;;5042552;28;20485;-36
2021/08/13 12:20:36;;;;;;;12.77;11.00;;;22.10;99.90;;;;;;5052838;28;20515;-36
2021/08/13 12:23:08;;;;;;;11.77;10.67;;;22.10;99.90;;;;;;5045939;28;20471;-36
2021/08/13 12:25:41;;;;;;;12.60;9.70;;;22.00;99.90;;;;;;5040033;28;20420;-36
2021/08/13 12:28:13;;;;;;;11.50;9.63;;;22.00;99.90;;;;;;5056030;28;20472;-36
2021/08/13 12:30:44;;;;;;;13.20;10.73;;;22.00;99.90;;;;;;5032086;28;20454;-36
2021/08/13 12:33:19;;;;;;;12.73;10.63;;;21.90;99.90;;;;;;5040253;28;20522;-36
2021/08/13 12:35:50;;;;;;;11.23;10.17;;;21.90;99.90;;;;;;5039187;28;20457;-36
2021/08/13 12:38:32;;;;;;;11.13;9.90;;;21.90;99.90;;;;;;5039122;28;20423;-36
2021/08/13 12:41:03;;;;;;;11.47;10.40;;;21.80;99.90;;;;;;5033740;28;20515;-36
2021/08/13 12:43:34;;;;;;;12.67;11.37;;;21.80;99.90;;;;;;5047999;28;20411;-36
2021/08/13 12:46:05;;;;;;;11.87;10.77;;;21.80;99.90;;;;;;5042488;28;20466;-36
2021/08/13 12:48:38;;;;;;;12.23;10.50;;;21.80;99.90;;;;;;5044277;28;20456;-37
2021/08/13 12:51:09;;;;;;;11.80;10.70;;;21.80;99.90;;;;;;5043250;28;20450;-36
2021/08/13 12:53:41;;;;;;;12.33;10.50;;;21.80;99.90;;;;;;5039734;28;20485;-36
2021/08/13 12:56:19;;;;;;;13.30;11.87;;;21.80;99.90;;;;;;5047947;28;20419;-36
2021/08/13 12:58:51;;;;;;;12.80;10.53;;;21.80;99.90;;;;;;5039660;28;20461;-36